createdAt,value
2019-03-19T00:01:08.547Z,5.20
2019-03-19T00:03:36.760Z,5.37
2019-03-19T00:06:04.963Z,5.20
2019-03-19T00:08:33.512Z,4.70
2019-03-19T00:11:01.712Z,4.87
2019-03-19T00:13:30.268Z,4.85
2019-03-19T00:15:58.465Z,4.62
2019-03-19T00:18:26.685Z,4.50
2019-03-19T00:20:54.878Z,4.72
2019-03-19T00:23:23.090Z,4.20
2019-03-19T00:25:53.132Z,4.67
2019-03-19T00:28:21.313Z,4.65
2019-03-19T00:30:49.513Z,4.20
2019-03-19T00:33:17.732Z,4.45
2019-03-19T00:35:45.942Z,4.60
2019-03-19T00:38:14.141Z,4.05
2019-03-19T00:40:42.602Z,3.85
2019-03-19T00:43:10.808Z,4.42
2019-03-19T00:45:39.022Z,4.37
2019-03-19T00:48:07.571Z,4.30
2019-03-19T00:50:35.766Z,4.28
2019-03-19T00:53:03.965Z,4.00
2019-03-19T00:55:40.247Z,4.15
2019-03-19T00:58:02.591Z,4.00
2019-03-19T01:00:30.802Z,4.30
2019-03-19T01:02:59.000Z,3.75
2019-03-19T01:05:27.203Z,4.00
2019-03-19T01:07:55.412Z,4.10
2019-03-19T01:10:23.871Z,4.10
2019-03-19T01:12:52.392Z,3.92
2019-03-19T01:15:20.604Z,4.15
2019-03-19T01:17:48.807Z,3.77
2019-03-19T01:20:17.515Z,4.25
2019-03-19T01:22:46.057Z,3.98
2019-03-19T01:25:14.275Z,3.85
2019-03-19T01:27:42.478Z,3.67
2019-03-19T01:30:15.019Z,3.92
2019-03-19T01:32:43.501Z,3.90
2019-03-19T01:35:11.719Z,3.62
2019-03-19T01:37:40.253Z,4.08
2019-03-19T01:40:12.606Z,3.65
2019-03-19T01:42:40.798Z,3.58
2019-03-19T01:45:12.648Z,3.40
2019-03-19T01:47:40.852Z,3.30
2019-03-19T01:50:13.130Z,3.35
2019-03-19T01:52:41.647Z,3.30
2019-03-19T01:55:14.049Z,3.62
2019-03-19T01:57:42.875Z,3.70
2019-03-19T02:00:18.645Z,3.25
2019-03-19T02:02:47.116Z,3.47
2019-03-19T02:05:15.333Z,3.62
2019-03-19T02:07:43.873Z,3.27
2019-03-19T02:10:13.221Z,3.10
2019-03-19T02:12:43.135Z,3.12
2019-03-19T02:15:18.954Z,3.40
2019-03-19T02:17:47.164Z,3.45
2019-03-19T02:20:16.419Z,3.02
2019-03-19T02:22:44.622Z,3.10
2019-03-19T02:25:12.844Z,3.20
2019-03-19T02:27:41.065Z,3.17
2019-03-19T02:30:13.988Z,3.10
2019-03-19T02:32:42.175Z,2.77
2019-03-19T02:35:10.447Z,2.98
2019-03-19T02:37:38.962Z,3.22
2019-03-19T02:40:13.269Z,3.00
2019-03-19T02:42:41.768Z,2.58
2019-03-19T02:45:13.991Z,3.15
2019-03-19T02:47:42.225Z,2.58
2019-03-19T02:50:12.175Z,2.75
2019-03-19T02:52:40.701Z,3.10
2019-03-19T02:55:10.506Z,2.58
2019-03-19T02:57:39.109Z,2.70
2019-03-19T03:00:13.124Z,2.65
2019-03-19T03:02:41.336Z,2.95
2019-03-19T03:05:12.799Z,2.70
2019-03-19T03:07:41.067Z,2.90
2019-03-19T03:10:10.818Z,2.50
2019-03-19T03:12:39.030Z,3.08
2019-03-19T03:15:14.296Z,2.77
2019-03-19T03:17:42.456Z,2.55
2019-03-19T03:20:12.114Z,2.55
2019-03-19T03:22:40.316Z,2.50
2019-03-19T03:25:11.135Z,3.12
2019-03-19T03:27:39.611Z,2.52
2019-03-19T03:30:15.740Z,2.60
2019-03-19T03:32:44.281Z,2.52
2019-03-19T03:35:12.492Z,2.50
2019-03-19T03:37:40.684Z,2.98
2019-03-19T03:40:13.914Z,2.80
2019-03-19T03:42:43.172Z,2.47
2019-03-19T03:45:16.432Z,2.52
2019-03-19T03:47:44.962Z,2.00
2019-03-19T03:50:15.798Z,2.50
2019-03-19T03:52:44.002Z,2.60
2019-03-19T03:55:13.240Z,2.27
2019-03-19T03:57:41.448Z,2.65
2019-03-19T04:00:12.696Z,2.65
2019-03-19T04:02:40.903Z,2.62
2019-03-19T04:05:09.447Z,2.55
2019-03-19T04:07:37.642Z,2.40
2019-03-19T04:10:11.266Z,2.80
2019-03-19T04:12:39.561Z,2.58
2019-03-19T04:15:33.573Z,2.15
2019-03-19T04:18:01.848Z,2.08
2019-03-19T04:20:30.323Z,2.30
2019-03-19T04:22:58.540Z,2.30
2019-03-19T04:25:26.754Z,2.25
2019-03-19T04:27:54.957Z,2.47
2019-03-19T04:30:23.158Z,2.22
2019-03-19T04:32:51.362Z,1.92
2019-03-19T04:35:19.883Z,2.33
2019-03-19T04:37:48.093Z,2.37
2019-03-19T04:40:16.861Z,2.20
2019-03-19T04:42:45.135Z,2.15
2019-03-19T04:45:14.372Z,2.20
2019-03-19T04:47:42.913Z,2.30
2019-03-19T04:50:15.871Z,2.17
2019-03-19T04:52:44.076Z,2.42
2019-03-19T04:55:16.125Z,2.42
2019-03-19T04:57:44.323Z,2.60
2019-03-19T05:00:16.555Z,2.30
2019-03-19T05:02:44.761Z,1.92
2019-03-19T05:05:14.594Z,2.30
2019-03-19T05:07:43.143Z,2.30
2019-03-19T05:10:16.448Z,2.50
2019-03-19T05:12:44.932Z,1.95
2019-03-19T05:15:13.128Z,2.20
2019-03-19T05:17:41.584Z,1.92
2019-03-19T05:20:16.148Z,2.22
2019-03-19T05:22:44.343Z,2.50
2019-03-19T05:25:12.560Z,2.30
2019-03-19T05:27:40.752Z,1.82
2019-03-19T05:30:14.527Z,2.12
2019-03-19T05:32:42.728Z,1.70
2019-03-19T05:35:10.966Z,2.37
2019-03-19T05:37:39.459Z,2.37
2019-03-19T05:40:16.220Z,2.27
2019-03-19T05:42:44.685Z,2.30
2019-03-19T05:45:13.829Z,2.08
2019-03-19T05:47:42.285Z,1.90
2019-03-19T05:50:12.329Z,2.40
2019-03-19T05:52:40.534Z,2.22
2019-03-19T05:55:09.379Z,2.30
2019-03-19T05:57:48.403Z,2.10
2019-03-19T06:00:16.564Z,2.47
2019-03-19T06:02:44.763Z,2.50
2019-03-19T06:05:12.989Z,2.52
2019-03-19T06:07:41.193Z,2.45
2019-03-19T06:10:11.388Z,2.60
2019-03-19T06:12:39.927Z,2.50
2019-03-19T06:15:11.129Z,3.30
2019-03-19T06:17:39.613Z,15.60
2019-03-19T06:20:15.427Z,28.65
2019-03-19T06:22:43.636Z,42.30
2019-03-19T06:25:12.950Z,42.00
2019-03-19T06:27:41.158Z,42.95
2019-03-19T06:30:15.425Z,39.60
2019-03-19T06:32:43.632Z,37.33
2019-03-19T06:35:13.030Z,35.88
2019-03-19T06:37:41.597Z,35.78
2019-03-19T06:40:14.784Z,33.67
2019-03-19T06:42:43.269Z,32.55
2019-03-19T06:45:13.873Z,31.42
2019-03-19T06:47:42.085Z,30.43
2019-03-19T06:50:12.916Z,27.77
2019-03-19T06:52:41.376Z,28.45
2019-03-19T06:55:14.147Z,26.90
2019-03-19T06:57:42.357Z,25.27
2019-03-19T07:00:15.865Z,26.45
2019-03-19T07:02:44.093Z,24.55
